ENW weather

Kenosha Regional Airport
Kenosha, Wisconsin, United States

Public forecast

Using degrees Fahrenheit for public forecast. Weather courtesy of forecast.io.

Current aviation weather report (METAR) for Kenosha Regional Airport

Retrieved 2020/06/06 15:53 UTC (1 hour ago):

KENW 061553Z 04010KT 10SM CLR 22/10 A3010 RMK AO2 SLP190 T02220100

Aviation forecast (TAF) for Kenosha Regional Airport

Retrieved 2020/06/06 12:30 UTC (4 hours ago):

TAF KENW 061128Z 0612/0712 32004KT P6SM FEW120 FM061500 02009KT P6SM SCT150 FM061900 05010KT P6SM FEW150 FM070100 04006KT P6SM SCT150